Time;durP1;ratioP1;P1;durP2;ratioP2;P2;SDS_P1;SDS_P2;PMS_P1;PMS_P2;Temp;Humidity;BMP_temperature;BMP_pressure;BME280_temperature;BME280_humidity;BME280_pressure;Samples;Min_cycle;Max_cycle;Signal;HPM_P1;HPM_P2
2023/12/01 00:01:29;;;;;;;42.60;19.25;;;;;;;-1.73;100.00;100639.06;4950208;28;20049;-78
2023/12/01 00:03:57;;;;;;;43.17;18.58;;;;;;;-1.72;100.00;100635.66;4960350;28;20047;-78
2023/12/01 00:06:24;;;;;;;42.72;18.27;;;;;;;-1.71;100.00;100637.44;4940824;28;20518;-77
2023/12/01 00:08:52;;;;;;;49.17;20.83;;;;;;;-1.70;100.00;100639.19;4981629;28;20050;-77
2023/12/01 00:11:21;;;;;;;46.85;20.27;;;;;;;-1.72;100.00;100638.25;4926706;28;20051;-77
2023/12/01 00:13:48;;;;;;;42.92;18.00;;;;;;;-1.84;100.00;100641.13;4965550;28;20053;-78
2023/12/01 00:16:15;;;;;;;43.25;19.35;;;;;;;-1.90;100.00;100639.13;4929554;28;20051;-77
2023/12/01 00:18:43;;;;;;;41.53;18.63;;;;;;;-1.91;100.00;100639.03;4959961;28;20046;-77
2023/12/01 00:21:10;;;;;;;46.45;19.13;;;;;;;-1.91;100.00;100645.09;4950978;28;20055;-76
2023/12/01 00:23:39;;;;;;;43.35;17.65;;;;;;;-1.91;100.00;100639.03;4964318;28;20043;-78
2023/12/01 00:26:07;;;;;;;40.75;17.13;;;;;;;-1.93;100.00;100636.38;4951065;28;20051;-77
2023/12/01 00:28:37;;;;;;;42.45;17.65;;;;;;;-1.90;100.00;100643.41;4947231;28;20058;-77
2023/12/01 00:31:04;;;;;;;38.25;17.65;;;;;;;-1.93;100.00;100645.81;4948099;28;20047;-77
2023/12/01 00:33:32;;;;;;;37.17;18.00;;;;;;;-1.98;100.00;100643.91;4954378;28;20054;-77
2023/12/01 00:36:00;;;;;;;34.20;15.48;;;;;;;-2.01;100.00;100650.59;4940457;28;20062;-77
2023/12/01 00:38:27;;;;;;;35.78;16.65;;;;;;;-2.06;100.00;100655.53;4961042;28;20057;-77
2023/12/01 00:40:55;;;;;;;41.13;16.92;;;;;;;-2.08;100.00;100646.84;4966980;28;20049;-77
2023/12/01 00:43:22;;;;;;;40.92;15.98;;;;;;;-2.09;100.00;100646.75;4946496;28;20035;-77
2023/12/01 00:45:50;;;;;;;34.92;15.43;;;;;;;-2.10;100.00;100651.00;4953076;28;20050;-78
2023/12/01 00:48:17;;;;;;;35.10;16.52;;;;;;;-2.14;100.00;100649.09;4975695;28;20448;-78
2023/12/01 00:50:46;;;;;;;33.63;15.45;;;;;;;-2.19;100.00;100653.16;4985994;28;20050;-78
2023/12/01 00:53:13;;;;;;;33.95;15.18;;;;;;;-2.22;100.00;100653.84;4941778;28;20050;-78
2023/12/01 00:55:41;;;;;;;34.65;15.45;;;;;;;-2.26;100.00;100651.94;4970862;28;20038;-78
2023/12/01 00:58:08;;;;;;;31.27;14.52;;;;;;;-2.26;100.00;100651.94;4926190;28;20051;-77
2023/12/01 01:00:36;;;;;;;34.05;15.88;;;;;;;-2.23;100.00;100646.94;4986131;28;20049;-77
2023/12/01 01:03:03;;;;;;;34.35;15.57;;;;;;;-2.20;100.00;100657.41;4972047;28;20066;-77
2023/12/01 01:05:31;;;;;;;30.40;15.23;;;;;;;-2.19;100.00;100666.06;4984164;28;20034;-78
2023/12/01 01:08:00;;;;;;;33.15;15.88;;;;;;;-2.18;100.00;100660.94;4946398;28;20504;-77
2023/12/01 01:10:27;;;;;;;29.25;14.13;;;;;;;-2.14;100.00;100674.91;4969039;28;20038;-77
2023/12/01 01:12:55;;;;;;;34.97;15.63;;;;;;;-2.11;100.00;100687.97;4929302;28;20047;-77
2023/12/01 01:15:23;;;;;;;36.60;16.70;;;;;;;-2.07;100.00;100689.91;4964233;28;20051;-77
2023/12/01 01:17:50;;;;;;;34.88;15.13;;;;;;;-2.04;100.00;100692.66;4952953;28;20424;-77
2023/12/01 01:20:18;;;;;;;32.25;14.65;;;;;;;-2.01;100.00;100690.22;4971833;28;20492;-77
2023/12/01 01:22:46;;;;;;;30.80;14.77;;;;;;;-1.97;100.00;100686.09;4950544;28;20059;-79
2023/12/01 01:25:13;;;;;;;30.70;15.63;;;;;;;-1.98;100.00;100689.50;4955467;28;20059;-78
2023/12/01 01:27:40;;;;;;;31.30;14.68;;;;;;;-1.96;100.00;100699.09;4965518;28;20496;-77
2023/12/01 01:30:08;;;;;;;28.17;14.48;;;;;;;-1.94;100.00;100706.03;4934004;28;20038;-77
2023/12/01 01:32:35;;;;;;;30.00;14.43;;;;;;;-1.96;100.00;100699.09;4958190;28;20055;-77
2023/12/01 01:35:03;;;;;;;31.55;15.13;;;;;;;-1.98;100.00;100698.13;4938183;28;20225;-76
2023/12/01 01:37:31;;;;;;;26.88;14.07;;;;;;;-1.96;100.00;100711.13;4955011;28;20517;-78
2023/12/01 01:39:58;;;;;;;25.98;12.80;;;;;;;-1.99;100.00;100706.66;4961047;28;20686;-77
2023/12/01 01:42:25;;;;;;;26.73;13.73;;;;;;;-1.99;100.00;100719.59;4948855;28;20062;-77
2023/12/01 01:44:53;;;;;;;26.20;13.00;;;;;;;-2.01;100.00;100717.75;4907672;28;20510;-77
2023/12/01 01:47:20;;;;;;;26.27;12.82;;;;;;;-2.03;100.00;100712.50;4952988;28;20051;-78
2023/12/01 01:49:47;;;;;;;23.25;12.35;;;;;;;-2.04;100.00;100721.06;4968993;28;20051;-78
2023/12/01 01:52:15;;;;;;;26.90;13.02;;;;;;;-2.06;100.00;100716.59;4937976;28;20489;-78
2023/12/01 01:54:43;;;;;;;24.80;12.38;;;;;;;-2.10;100.00;100706.94;4970205;28;20062;-78
2023/12/01 01:57:11;;;;;;;24.48;12.65;;;;;;;-2.18;100.00;100715.16;4967020;28;20055;-77
2023/12/01 01:59:38;;;;;;;26.05;12.70;;;;;;;-2.22;100.00;100712.34;4957826;28;20055;-78
2023/12/01 02:02:06;;;;;;;23.35;11.50;;;;;;;-2.29;100.00;100718.00;4926016;28;20047;-78
2023/12/01 02:04:34;;;;;;;24.27;11.57;;;;;;;-2.39;100.00;100709.75;4943154;28;20050;-78
2023/12/01 02:07:01;;;;;;;24.13;11.68;;;;;;;-2.44;100.00;100718.97;4953031;28;20051;-77
2023/12/01 02:09:35;;;;;;;21.90;11.43;;;;;;;-2.50;100.00;100707.41;4958416;28;20042;-77
2023/12/01 02:12:03;;;;;;;20.55;11.00;;;;;;;-2.56;100.00;100718.31;4947792;28;20050;-77
2023/12/01 02:14:30;;;;;;;19.92;9.73;;;;;;;-2.60;100.00;100724.97;4962642;28;20047;-77
2023/12/01 02:16:57;;;;;;;18.27;8.98;;;;;;;-2.65;100.00;100717.81;4930075;28;20045;-77
2023/12/01 02:19:25;;;;;;;14.00;7.78;;;;;;;-2.69;100.00;100716.75;4947163;28;20055;-76
2023/12/01 02:21:54;;;;;;;14.75;7.82;;;;;;;-2.71;100.00;100720.06;4937020;28;20498;-79
2023/12/01 02:24:21;;;;;;;17.35;8.57;;;;;;;-2.72;100.00;100720.84;4958647;28;20051;-77
2023/12/01 02:26:49;;;;;;;18.70;9.35;;;;;;;-2.72;100.00;100726.91;4965020;28;20039;-77
2023/12/01 02:29:17;;;;;;;20.85;9.63;;;;;;;-2.72;100.00;100726.00;4958498;28;20054;-76
2023/12/01 02:31:44;;;;;;;19.48;9.93;;;;;;;-2.76;100.00;100725.84;4925310;28;20050;-77
2023/12/01 02:34:12;;;;;;;20.85;11.00;;;;;;;-2.76;100.00;100725.84;4974083;28;20420;-77
2023/12/01 02:36:40;;;;;;;20.27;10.18;;;;;;;-2.78;100.00;100731.72;4944871;28;20050;-77
2023/12/01 02:39:08;;;;;;;19.15;10.02;;;;;;;-2.78;100.00;100734.28;4982838;28;20094;-77
2023/12/01 02:41:36;;;;;;;21.27;10.45;;;;;;;-2.82;100.00;100735.81;4970870;28;20131;-77
2023/12/01 02:44:03;;;;;;;18.38;10.30;;;;;;;-2.86;100.00;100739.03;4966003;28;20046;-77
2023/12/01 02:46:31;;;;;;;16.63;8.98;;;;;;;-2.92;100.00;100736.13;4951730;28;20054;-77
2023/12/01 02:48:58;;;;;;;18.10;9.98;;;;;;;-2.97;100.00;100741.03;4956174;28;20046;-78
2023/12/01 02:51:25;;;;;;;17.23;9.52;;;;;;;-2.97;100.00;100734.97;4949877;28;20051;-77
2023/12/01 02:53:53;;;;;;;19.55;10.30;;;;;;;-2.99;100.00;100731.41;4968537;28;20058;-77
2023/12/01 02:56:20;;;;;;;15.77;8.30;;;;;;;-3.00;100.00;100733.13;4966854;28;20051;-77
2023/12/01 02:58:47;;;;;;;15.38;7.85;;;;;;;-3.03;100.00;100732.06;4982664;28;20055;-77
2023/12/01 03:01:15;;;;;;;19.02;8.57;;;;;;;-3.04;100.00;100732.88;4967937;28;20035;-78
2023/12/01 03:03:43;;;;;;;18.48;8.98;;;;;;;-3.06;100.00;100735.38;4926630;28;20065;-77
2023/12/01 03:06:10;;;;;;;15.63;8.20;;;;;;;-3.08;100.00;100739.56;4963850;28;20050;-78
2023/12/01 03:08:39;;;;;;;17.40;9.07;;;;;;;-3.10;100.00;100733.41;4941982;28;20038;-78
2023/12/01 03:11:06;;;;;;;14.98;8.25;;;;;;;-3.13;100.00;100736.69;4980890;28;20409;-77
2023/12/01 03:13:34;;;;;;;16.20;8.38;;;;;;;-3.15;100.00;100730.56;4982056;28;20058;-78
2023/12/01 03:16:02;;;;;;;16.10;7.80;;;;;;;-3.16;100.00;100739.13;4966116;28;20055;-77
2023/12/01 03:18:30;;;;;;;15.65;8.35;;;;;;;-3.18;100.00;100739.81;4933358;28;20050;-77
2023/12/01 03:20:58;;;;;;;17.05;8.50;;;;;;;-3.24;100.00;100739.47;4979469;28;20061;-77
2023/12/01 03:23:25;;;;;;;16.45;7.88;;;;;;;-3.27;100.00;100740.19;4961373;28;20062;-77
2023/12/01 03:25:53;;;;;;;16.00;7.72;;;;;;;-3.31;100.00;100735.66;4931499;28;20039;-77
2023/12/01 03:28:21;;;;;;;15.40;8.25;;;;;;;-3.36;100.00;100740.56;4966338;28;20157;-77
2023/12/01 03:30:49;;;;;;;15.75;7.70;;;;;;;-3.38;100.00;100733.53;4965117;28;20061;-78
2023/12/01 03:33:17;;;;;;;14.30;7.78;;;;;;;-3.42;100.00;100735.06;4926247;28;20059;-78
2023/12/01 03:35:44;;;;;;;16.52;8.07;;;;;;;-3.44;100.00;100730.59;4967679;28;20475;-77
2023/12/01 03:38:11;;;;;;;13.07;7.00;;;;;;;-3.45;100.00;100723.69;4971243;28;20056;-77
2023/12/01 03:40:39;;;;;;;16.25;7.35;;;;;;;-3.47;100.00;100727.88;4955334;28;20051;-77
2023/12/01 03:43:07;;;;;;;17.85;8.05;;;;;;;-3.49;100.00;100732.91;4955666;28;20483;-78
2023/12/01 03:45:34;;;;;;;17.05;8.20;;;;;;;-3.51;100.00;100731.06;4965902;28;20050;-77
2023/12/01 03:48:02;;;;;;;14.52;7.90;;;;;;;-3.53;100.00;100730.97;4923715;28;20058;-77
2023/12/01 03:50:29;;;;;;;12.65;7.07;;;;;;;-3.52;100.00;100730.16;4952358;28;20460;-78
2023/12/01 03:52:57;;;;;;;14.85;7.78;;;;;;;-3.53;100.00;100729.28;4964210;28;20055;-77
2023/12/01 03:55:24;;;;;;;16.05;7.78;;;;;;;-3.54;100.00;100730.06;4951278;28;20055;-77
2023/12/01 03:57:52;;;;;;;17.35;7.68;;;;;;;-3.56;100.00;100741.97;4946678;28;20081;-78
2023/12/01 04:00:21;;;;;;;15.15;7.80;;;;;;;-3.57;100.00;100734.19;4916322;28;20043;-76
2023/12/01 04:02:49;;;;;;;18.93;8.43;;;;;;;-3.59;100.00;100741.81;4979908;28;20042;-76
2023/12/01 04:05:18;;;;;;;19.92;8.65;;;;;;;-3.59;100.00;100736.66;4922788;28;20302;-76
2023/12/01 04:07:51;;;;;;;15.57;8.13;;;;;;;-3.60;100.00;100741.72;4979664;28;20066;-77
2023/12/01 04:10:24;;;;;;;19.52;9.02;;;;;;;-3.62;100.00;100740.75;4955292;28;20047;-77
2023/12/01 04:12:52;;;;;;;18.50;9.15;;;;;;;-3.61;100.00;100742.50;4964430;28;20408;-78
2023/12/01 04:15:21;;;;;;;23.00;10.93;;;;;;;-3.62;100.00;100731.31;4971826;28;20388;-77
2023/12/01 04:17:49;;;;;;;24.23;10.35;;;;;;;-3.60;100.00;100736.56;4968418;28;20059;-77
2023/12/01 04:20:22;;;;;;;25.38;11.63;;;;;;;-3.59;100.00;100736.66;4924815;28;20427;-77
2023/12/01 04:23:00;;;;;;;23.38;10.98;;;;;;;-3.58;100.00;100728.13;4971264;28;20043;-77
2023/12/01 04:25:29;;;;;;;19.27;9.93;;;;;;;-3.59;100.00;100726.34;4958804;28;20050;-77
2023/12/01 04:27:59;;;;;;;20.98;10.73;;;;;;;-3.59;100.00;100738.31;4966873;28;20047;-77
2023/12/01 04:30:27;;;;;;;25.15;11.02;;;;;;;-3.63;100.00;100734.72;4971284;28;20062;-76
2023/12/01 04:32:55;;;;;;;26.20;11.55;;;;;;;-3.65;100.00;100741.44;4967651;28;20050;-77
2023/12/01 04:35:35;;;;;;;17.40;9.27;;;;;;;-3.68;100.00;100758.41;4934204;28;20065;-77
2023/12/01 04:38:03;;;;;;;25.38;11.25;;;;;;;-3.69;100.00;100754.03;4954668;28;20804;-78
2023/12/01 04:40:32;;;;;;;25.63;11.52;;;;;;;-3.72;100.00;100759.91;4955416;28;20050;-77
2023/12/01 04:43:01;;;;;;;23.27;11.48;;;;;;;-3.73;100.00;100747.81;4962236;28;20043;-76
2023/12/01 04:45:32;;;;;;;21.58;11.15;;;;;;;-3.75;100.00;100752.88;4953828;28;20055;-77
2023/12/01 04:47:59;;;;;;;23.58;10.23;;;;;;;-3.76;100.00;100756.28;4967143;28;20058;-77
2023/12/01 04:50:30;;;;;;;27.02;12.00;;;;;;;-3.78;100.00;100754.38;4970232;28;20416;-77
2023/12/01 04:53:00;;;;;;;26.73;12.50;;;;;;;-3.79;100.00;100763.81;4920754;28;20048;-77
2023/12/01 04:55:29;;;;;;;26.75;13.18;;;;;;;-3.78;100.00;100767.25;4913929;28;20046;-77
2023/12/01 04:58:00;;;;;;;27.67;13.32;;;;;;;-3.77;100.00;100763.91;4962911;28;20066;-77
2023/12/01 05:00:28;;;;;;;25.50;11.70;;;;;;;-3.77;100.00;100763.91;4965713;28;20516;-78
2023/12/01 05:03:06;;;;;;;26.85;12.60;;;;;;;-3.79;100.00;100752.63;4949791;28;20050;-77
2023/12/01 05:05:36;;;;;;;27.88;13.88;;;;;;;-3.78;100.00;100754.38;4966365;28;20073;-77
2023/12/01 05:08:07;;;;;;;26.77;13.48;;;;;;;-3.76;100.00;100765.69;4932074;28;20073;-77
2023/12/01 05:10:36;;;;;;;24.45;13.05;;;;;;;-3.78;100.00;100772.41;4966769;28;20039;-77
2023/12/01 05:13:07;;;;;;;29.67;13.07;;;;;;;-3.81;100.00;100774.81;4956438;28;20397;-77
2023/12/01 05:15:36;;;;;;;25.85;12.48;;;;;;;-3.84;100.00;100772.94;4957311;28;20047;-77
2023/12/01 05:18:06;;;;;;;21.10;10.90;;;;;;;-3.84;100.00;100769.47;4985889;28;20057;-77
2023/12/01 05:20:34;;;;;;;23.73;10.60;;;;;;;-3.86;100.00;100778.78;4968431;28;20066;-77
2023/12/01 05:23:08;;;;;;;27.05;10.95;;;;;;;-3.86;100.00;100781.38;4928226;28;20059;-77
2023/12/01 05:25:41;;;;;;;24.05;11.10;;;;;;;-3.89;100.00;100778.59;4967456;28;20300;-78
2023/12/01 05:28:11;;;;;;;22.15;10.88;;;;;;;-3.92;100.00;100779.31;4969202;28;20428;-76
2023/12/01 05:30:48;;;;;;;22.83;11.63;;;;;;;-3.93;100.00;100777.56;4965790;28;20054;-77
2023/12/01 05:33:16;;;;;;;25.08;11.50;;;;;;;-3.93;100.00;100782.72;4967030;28;20058;-77
2023/12/01 05:35:45;;;;;;;22.83;10.98;;;;;;;-3.96;100.00;100791.13;4967862;28;20051;-77
2023/12/01 05:38:15;;;;;;;23.75;11.15;;;;;;;-3.98;100.00;100800.44;4918248;28;20049;-77
2023/12/01 05:40:43;;;;;;;23.38;11.23;;;;;;;-4.01;100.00;100794.19;4949412;28;20520;-77
2023/12/01 05:43:10;;;;;;;21.58;10.48;;;;;;;-4.00;100.00;100796.00;4939465;28;20057;-77
2023/12/01 05:45:37;;;;;;;22.63;10.75;;;;;;;-4.02;100.00;100800.16;4922325;28;24065;-77
2023/12/01 05:48:08;;;;;;;24.75;10.38;;;;;;;-4.02;100.00;100813.03;4979202;28;20069;-77
2023/12/01 05:50:37;;;;;;;25.25;11.18;;;;;;;-4.06;100.00;100804.22;4971210;28;20473;-78
2023/12/01 05:53:06;;;;;;;19.50;10.73;;;;;;;-4.08;100.00;100803.25;4983688;28;20046;-77
2023/12/01 05:55:35;;;;;;;26.80;11.57;;;;;;;-4.08;100.00;100804.91;4912543;28;20072;-78
2023/12/01 05:58:09;;;;;;;22.60;11.25;;;;;;;-4.08;100.00;100808.41;4965805;28;20420;-77
2023/12/01 06:00:37;;;;;;;25.58;11.50;;;;;;;-4.09;100.00;100804.03;4973220;28;20070;-77
2023/12/01 06:03:07;;;;;;;22.00;11.25;;;;;;;-4.09;100.00;100810.88;4969641;28;20046;-77
2023/12/01 06:05:36;;;;;;;29.08;11.43;;;;;;;-4.10;100.00;100807.41;4980041;28;20051;-78
2023/12/01 06:08:05;;;;;;;26.27;10.90;;;;;;;-4.08;100.00;100807.50;4967625;28;20058;-77
2023/12/01 06:10:34;;;;;;;23.25;11.07;;;;;;;-4.11;100.00;100805.63;4904930;28;20361;-76
2023/12/01 06:13:02;;;;;;;22.30;11.80;;;;;;;-4.11;100.00;100810.78;4965787;28;20042;-77
2023/12/01 06:15:30;;;;;;;25.77;11.80;;;;;;;-4.09;100.00;100804.03;4971159;28;20061;-76
2023/12/01 06:17:59;;;;;;;23.25;11.85;;;;;;;-4.09;100.00;100814.34;4982015;28;20504;-77
2023/12/01 06:20:29;;;;;;;27.73;13.35;;;;;;;-4.10;100.00;100812.56;4964534;28;20058;-77
2023/12/01 06:23:05;;;;;;;24.73;12.00;;;;;;;-4.13;100.00;100810.69;4935772;28;20397;-77
2023/12/01 06:25:37;;;;;;;24.95;11.70;;;;;;;-4.11;100.00;100808.19;4925165;28;20487;-77
2023/12/01 06:28:05;;;;;;;;;;;;;;;-4.14;100.00;100805.44;4954804;28;20058;-77
2023/12/01 06:30:34;;;;;;;21.00;10.20;;;;;;;-4.16;100.00;100813.09;4955036;28;19929;-76
2023/12/01 06:33:06;;;;;;;22.23;11.07;;;;;;;-4.18;100.00;100806.03;4964275;28;20523;-77
2023/12/01 06:35:35;;;;;;;21.90;10.50;;;;;;;-4.17;100.00;100806.13;4970242;28;20058;-77
2023/12/01 06:38:03;;;;;;;21.27;10.68;;;;;;;-4.15;100.00;100820.00;4963813;28;20514;-76
2023/12/01 06:40:33;;;;;;;18.15;9.43;;;;;;;-4.17;100.00;100816.44;4924164;28;20058;-76
2023/12/01 06:43:09;;;;;;;19.70;9.50;;;;;;;-4.17;100.00;100825.84;4963014;28;20055;-77
2023/12/01 06:45:40;;;;;;;20.75;10.13;;;;;;;-4.17;100.00;100823.28;4951899;28;20451;-76
2023/12/01 06:48:08;;;;;;;20.65;10.35;;;;;;;-4.19;100.00;100830.91;4974000;28;20074;-76
2023/12/01 06:50:35;;;;;;;26.42;11.52;;;;;;;-4.18;100.00;100831.78;4950152;28;20074;-77
2023/12/01 06:53:03;;;;;;;30.25;10.82;;;;;;;-4.19;100.00;100848.03;4936775;28;20059;-77
2023/12/01 06:55:31;;;;;;;23.20;11.30;;;;;;;-4.19;100.00;100838.63;4921987;28;20047;-76
2023/12/01 06:57:58;;;;;;;24.80;10.27;;;;;;;-4.21;100.00;100850.50;4954894;28;20058;-77
2023/12/01 07:02:59;;;;;;;21.90;10.52;;;;;;;-4.23;100.00;100841.78;4953228;28;20047;-76
2023/12/01 07:05:28;;;;;;;23.20;10.65;;;;;;;-4.24;100.00;100855.44;4974530;28;20054;-76
2023/12/01 07:07:59;;;;;;;24.25;11.05;;;;;;;-4.22;100.00;100873.56;4927405;28;20054;-75
2023/12/01 07:10:29;;;;;;;19.58;10.55;;;;;;;-4.25;100.00;100891.38;4963429;28;20122;-77
2023/12/01 07:12:57;;;;;;;21.00;10.23;;;;;;;-4.29;100.00;100885.16;4892280;28;20047;-76
2023/12/01 07:15:25;;;;;;;24.65;11.13;;;;;;;-4.29;100.00;100892.88;4941421;28;20058;-76
2023/12/01 07:17:54;;;;;;;19.55;9.50;;;;;;;-4.28;100.00;100897.22;4947666;28;20054;-77
2023/12/01 07:20:23;;;;;;;21.23;9.90;;;;;;;-4.27;100.00;100900.66;4962545;28;20058;-77
2023/12/01 07:22:52;;;;;;;21.33;9.93;;;;;;;-4.26;100.00;100897.31;4951230;28;20306;-77
2023/12/01 07:25:23;;;;;;;20.73;10.43;;;;;;;-4.26;100.00;100903.34;4951568;28;20053;-76
2023/12/01 07:27:59;;;;;;;20.80;11.30;;;;;;;-4.27;100.00;100898.09;4904716;28;20058;-76
2023/12/01 07:30:27;;;;;;;21.52;10.18;;;;;;;-4.27;100.00;100901.59;4963649;28;20557;-76
2023/12/01 07:32:57;;;;;;;22.83;10.95;;;;;;;-4.28;100.00;100917.81;4946054;28;20063;-76
2023/12/01 07:35:25;;;;;;;22.90;10.70;;;;;;;-4.28;100.00;100909.19;4961757;28;20054;-76
2023/12/01 07:37:52;;;;;;;20.02;10.68;;;;;;;-4.27;100.00;100921.25;4964769;28;20046;-76
2023/12/01 07:40:22;;;;;;;23.98;10.88;;;;;;;-4.24;100.00;100912.06;4934593;28;20459;-77
2023/12/01 07:42:51;;;;;;;21.25;10.90;;;;;;;-4.21;100.00;100926.81;4920874;28;20607;-76
2023/12/01 07:45:21;;;;;;;26.00;11.65;;;;;;;-4.19;100.00;100927.81;4935923;28;20038;-76
2023/12/01 07:47:51;;;;;;;23.53;11.20;;;;;;;-4.17;100.00;100936.50;4956871;28;20046;-77
2023/12/01 07:50:20;;;;;;;24.80;10.73;;;;;;;-4.09;100.00;100942.13;4943948;28;20325;-77
2023/12/01 07:52:49;;;;;;;19.95;10.57;;;;;;;-4.08;100.00;100937.09;4947690;28;20051;-76
2023/12/01 07:55:19;;;;;;;24.20;11.95;;;;;;;-4.04;100.00;100936.50;4953689;28;20381;-76
2023/12/01 07:57:47;;;;;;;;;;;;;;;-4.02;100.00;100934.91;4933260;28;20055;-76
2023/12/01 08:00:16;;;;;;;27.42;12.27;;;;;;;-4.00;100.00;100937.56;4956453;28;19930;-76
2023/12/01 08:02:47;;;;;;;26.75;12.98;;;;;;;-3.97;100.00;100933.50;4954190;28;20431;-77
2023/12/01 08:05:15;;;;;;;23.25;11.85;;;;;;;-3.93;100.00;100940.63;4964628;28;20046;-76
2023/12/01 08:07:51;;;;;;;18.38;9.68;;;;;;;-3.89;100.00;100945.94;4953797;28;20054;-77
2023/12/01 08:10:21;;;;;;;27.05;13.63;;;;;;;-3.84;100.00;100950.59;4979393;28;20055;-76
2023/12/01 08:12:50;;;;;;;22.85;12.15;;;;;;;-3.82;100.00;100948.13;4910781;28;20042;-76
2023/12/01 08:15:18;;;;;;;24.70;12.88;;;;;;;-3.81;100.00;100947.34;4949779;28;20043;-76
2023/12/01 08:17:45;;;;;;;24.75;11.43;;;;;;;-3.81;100.00;100950.78;4940764;28;20066;-77
2023/12/01 08:20:16;;;;;;;22.98;11.60;;;;;;;-3.77;100.00;100945.03;4969607;28;20043;-76
2023/12/01 08:22:46;;;;;;;25.05;11.02;;;;;;;-3.74;100.00;100958.13;4939481;28;20063;-76
2023/12/01 08:25:14;;;;;;;23.45;12.30;;;;;;;-3.70;100.00;100953.13;4950868;28;20054;-76
2023/12/01 08:27:42;;;;;;;21.88;11.57;;;;;;;-3.67;100.00;100956.78;4968835;28;20051;-76
2023/12/01 08:30:10;;;;;;;22.58;12.15;;;;;;;-3.64;100.00;100962.16;4906659;28;20066;-77
2023/12/01 08:32:49;;;;;;;24.83;11.15;;;;;;;-3.60;100.00;100951.22;4941949;28;20416;-76
2023/12/01 08:35:17;;;;;;;23.30;11.35;;;;;;;-3.58;100.00;100947.06;4934074;28;20428;-76
2023/12/01 08:37:44;;;;;;;21.75;11.00;;;;;;;-3.56;100.00;100955.78;4967866;28;20059;-75
2023/12/01 08:40:12;;;;;;;25.00;11.80;;;;;;;-3.53;100.00;100960.25;4971197;28;20051;-76
2023/12/01 08:42:42;;;;;;;23.17;11.52;;;;;;;-3.49;100.00;100961.31;4932535;28;20039;-76
2023/12/01 08:45:10;;;;;;;25.77;13.43;;;;;;;-3.45;100.00;100968.44;4895655;28;20499;-75
2023/12/01 08:47:40;;;;;;;23.50;11.93;;;;;;;-3.41;100.00;100967.84;4934723;28;20054;-76
2023/12/01 08:50:08;;;;;;;26.73;12.68;;;;;;;-3.38;100.00;100968.91;4972849;28;20055;-76
2023/12/01 08:52:37;;;;;;;22.48;11.57;;;;;;;-3.36;100.00;100966.44;4964569;28;20062;-76
2023/12/01 08:55:05;;;;;;;25.13;12.82;;;;;;;-3.34;100.00;100964.84;4964827;28;20091;-76
2023/12/01 08:57:33;;;;;;;39.90;12.35;;;;;;;-3.33;100.00;100964.94;4976842;28;20288;-77
2023/12/01 09:00:01;;;;;;;27.50;12.52;;;;;;;-3.30;100.00;100966.78;4926875;28;20059;-77
2023/12/01 09:02:28;;;;;;;23.88;11.73;;;;;;;-3.25;100.00;100973.13;4935810;28;20527;-76
2023/12/01 09:04:57;;;;;;;23.55;11.65;;;;;;;-3.20;100.00;100965.66;4959252;28;20046;-76
2023/12/01 09:07:25;;;;;;;26.45;12.73;;;;;;;-3.15;100.00;100966.84;4941991;29;20046;-78
2023/12/01 09:09:58;;;;;;;25.95;12.35;;;;;;;-3.07;100.00;100959.56;4973880;28;20047;-77
2023/12/01 09:12:26;;;;;;;23.15;11.82;;;;;;;-3.03;100.00;100961.50;4976188;28;20432;-77
2023/12/01 09:14:54;;;;;;;23.77;11.18;;;;;;;-2.98;100.00;100962.69;4939283;28;20042;-77
2023/12/01 09:17:22;;;;;;;23.55;12.02;;;;;;;-2.94;100.00;100974.97;4908037;28;20060;-76
2023/12/01 09:19:50;;;;;;;22.13;11.93;;;;;;;-2.90;100.00;100960.56;4945046;28;20058;-77
2023/12/01 09:22:18;;;;;;;27.77;11.57;;;;;;;-2.86;100.00;100963.41;4949586;28;20036;-76
2023/12/01 09:24:46;;;;;;;21.40;11.38;;;;;;;-2.82;100.00;100967.94;4975452;28;20047;-77
2023/12/01 09:27:14;;;;;;;19.75;10.07;;;;;;;-2.81;100.00;100962.00;4946932;28;20058;-77
2023/12/01 09:29:41;;;;;;;22.02;11.00;;;;;;;-2.77;100.00;100984.56;4946761;28;20066;-76
2023/12/01 09:32:09;;;;;;;23.75;10.65;;;;;;;-2.71;100.00;100985.75;4887442;28;20047;-76
2023/12/01 09:34:36;;;;;;;23.90;12.32;;;;;;;-2.68;100.00;100986.81;4980794;28;20050;-76
2023/12/01 09:37:04;;;;;;;24.30;11.55;;;;;;;-2.60;100.00;100997.59;4956067;28;20054;-75
2023/12/01 09:39:31;;;;;;;25.90;13.00;;;;;;;-2.52;100.00;100998.03;4964871;28;20061;-76
2023/12/01 09:42:05;;;;;;;24.60;13.00;;;;;;;-2.45;100.00;100989.84;4960056;28;20062;-76
2023/12/01 09:44:34;;;;;;;25.92;13.30;;;;;;;-2.41;100.00;100991.81;4979467;28;20058;-76
2023/12/01 09:47:03;;;;;;;24.85;11.50;;;;;;;-2.34;100.00;101009.44;4936758;28;20051;-77
2023/12/01 09:49:33;;;;;;;27.45;12.45;;;;;;;-2.29;100.00;101009.69;4953868;28;20055;-76
2023/12/01 09:52:02;;;;;;;24.43;11.30;;;;;;;-2.24;100.00;101006.56;4973668;28;20051;-76
2023/12/01 09:54:32;;;;;;;26.85;13.45;;;;;;;-2.18;100.00;101003.44;4952106;28;20050;-75
2023/12/01 09:57:06;;;;;;;22.90;12.05;;;;;;;-2.15;100.00;101006.19;4964116;28;20043;-76
2023/12/01 09:59:36;;;;;;;24.05;12.07;;;;;;;-2.09;100.00;101008.25;4965905;28;20057;-76
2023/12/01 10:02:04;;;;;;;26.25;13.30;;;;;;;-2.04;100.00;101006.78;4921336;28;20054;-75
2023/12/01 10:04:32;;;;;;;24.25;12.48;;;;;;;-2.00;100.00;101006.19;4964855;28;20046;-75
2023/12/01 10:07:03;;;;;;;22.85;12.73;;;;;;;-1.94;100.00;101001.34;4953721;28;20054;-78
2023/12/01 10:09:33;;;;;;;23.45;12.05;;;;;;;-1.87;100.00;101012.91;4949786;28;20120;-76
2023/12/01 10:12:04;;;;;;;;;;;;;;;-1.81;100.00;101002.94;4980687;28;20073;-75
2023/12/01 10:14:32;;;;;;;26.45;12.45;;;;;;;-1.73;100.00;101006.81;4965573;28;20370;-76
2023/12/01 10:17:04;;;;;;;21.48;11.07;;;;;;;-1.69;100.00;101006.19;4899406;28;20070;-76
2023/12/01 10:19:33;;;;;;;22.20;11.52;;;;;;;-1.64;100.00;101017.66;4979415;28;20046;-75
2023/12/01 10:22:01;;;;;;;20.95;11.40;;;;;;;-1.61;100.00;101012.69;4953099;28;20416;-75
2023/12/01 10:24:30;;;;;;;23.50;11.77;;;;;;;-1.57;100.00;101018.88;4948587;28;20049;-76
2023/12/01 10:27:04;;;;;;;25.92;12.00;;;;;;;-1.53;100.00;101015.69;4967233;28;20519;-75
2023/12/01 10:29:32;;;;;;;22.05;11.75;;;;;;;-1.45;100.00;101006.63;4974821;28;20057;-75
2023/12/01 10:32:11;;;;;;;21.88;11.82;;;;;;;-1.41;100.00;101007.69;4907649;28;20065;-75
2023/12/01 10:34:39;;;;;;;22.98;11.73;;;;;;;-1.43;100.00;101006.72;4952232;28;20039;-76
2023/12/01 10:37:06;;;;;;;23.77;11.90;;;;;;;-1.44;100.00;101004.94;4944777;28;20063;-75
2023/12/01 10:39:34;;;;;;;23.38;11.52;;;;;;;-1.43;100.00;101012.78;4956923;28;20543;-76
2023/12/01 10:42:02;;;;;;;23.05;11.52;;;;;;;-1.43;100.00;101011.91;4962398;28;20504;-75
2023/12/01 10:44:35;;;;;;;22.23;12.48;;;;;;;-1.41;100.00;100998.22;4949536;28;20419;-76
2023/12/01 10:47:03;;;;;;;23.73;12.73;;;;;;;-1.37;100.00;101002.75;4930799;28;20046;-75
2023/12/01 10:49:31;;;;;;;22.65;11.88;;;;;;;-1.33;100.00;101008.09;4957081;28;20046;-75
2023/12/01 10:52:00;;;;;;;22.48;11.90;;;;;;;-1.32;100.00;101000.44;4962198;28;20055;-75
2023/12/01 10:54:31;;;;;;;26.83;12.35;;;;;;;-1.31;100.00;101001.31;4964161;28;20042;-76
2023/12/01 10:57:28;;;;;;;23.85;12.43;;;;;;;-1.29;100.00;100982.47;4950305;28;20061;-77
2023/12/01 10:59:59;;;;;;;25.73;12.50;;;;;;;-1.26;100.00;100980.06;4968093;28;20062;-76
2023/12/01 11:02:30;;;;;;;24.30;12.00;;;;;;;-1.23;100.00;100980.25;4906209;28;20057;-75
2023/12/01 11:04:58;;;;;;;28.35;12.95;;;;;;;-1.20;100.00;100988.13;4953596;28;20043;-76
2023/12/01 11:07:42;;;;;;;25.40;13.13;;;;;;;-1.19;100.00;100989.06;4944607;28;20538;-76
2023/12/01 11:10:22;;;;;;;24.77;12.95;;;;;;;-1.18;100.00;100985.63;4955761;28;20055;-75
2023/12/01 11:13:18;;;;;;;27.90;12.43;;;;;;;-1.15;100.00;100977.16;4973194;28;20055;-75
2023/12/01 11:15:49;;;;;;;26.08;11.98;;;;;;;-1.13;100.00;100980.72;4975876;28;20051;-74